Time;durP1;ratioP1;P1;durP2;ratioP2;P2;SDS_P1;SDS_P2;PMS_P1;PMS_P2;Temp;Humidity;BMP_temperature;BMP_pressure;BME280_temperature;BME280_humidity;BME280_pressure;Samples;Min_cycle;Max_cycle;Signal;HPM_P1;HPM_P2
2023/05/22 00:02:08;;;;;;;16.70;7.18;;;18.40;95.60;;;;;;5034161;28;20394;-76
2023/05/22 00:04:34;;;;;;;15.30;7.40;;;18.30;95.70;;;;;;5034824;28;20119;-75
2023/05/22 00:06:59;;;;;;;17.25;7.18;;;18.30;95.80;;;;;;5034298;28;20055;-72
2023/05/22 00:09:25;;;;;;;13.40;6.93;;;18.30;95.90;;;;;;5050747;28;20091;-74
2023/05/22 00:11:51;;;;;;;12.45;6.88;;;18.30;95.90;;;;;;5052023;28;20029;-72
2023/05/22 00:14:17;;;;;;;18.38;7.90;;;18.30;95.80;;;;;;5052793;28;20056;-75
2023/05/22 00:16:43;;;;;;;15.10;7.00;;;18.30;95.80;;;;;;5053997;28;20470;-71
2023/05/22 00:19:12;;;;;;;15.43;7.82;;;18.40;95.70;;;;;;5040410;28;20036;-72
2023/05/22 00:21:43;;;;;;;16.02;7.47;;;18.40;95.70;;;;;;5033666;28;20438;-73
2023/05/22 00:24:09;;;;;;;20.83;8.13;;;18.30;95.80;;;;;;5033906;28;20036;-74
2023/05/22 00:26:34;;;;;;;15.68;6.90;;;18.30;95.90;;;;;;5032152;28;20268;-74
2023/05/22 00:29:00;;;;;;;14.00;6.95;;;18.30;96.00;;;;;;5043879;28;20555;-72
2023/05/22 00:31:26;;;;;;;16.88;7.57;;;18.30;96.00;;;;;;5048087;28;20053;-73
2023/05/22 00:33:51;;;;;;;13.48;6.15;;;18.30;95.90;;;;;;5033582;28;20053;-71
2023/05/22 00:36:20;;;;;;;10.20;5.95;;;18.30;95.90;;;;;;5032259;28;20029;-73
2023/05/22 00:38:47;;;;;;;15.98;7.38;;;18.20;96.00;;;;;;5039083;28;20053;-73
2023/05/22 00:41:12;;;;;;;18.70;8.25;;;18.30;96.00;;;;;;5052363;28;20159;-73
2023/05/22 00:43:38;;;;;;;19.65;8.98;;;18.20;96.10;;;;;;5053109;28;20526;-71
2023/05/22 00:46:06;;;;;;;19.13;9.10;;;18.20;96.10;;;;;;5053303;28;20021;-72
2023/05/22 00:48:31;;;;;;;18.40;9.23;;;18.20;96.20;;;;;;5049019;28;20065;-75
2023/05/22 00:50:59;;;;;;;21.73;11.15;;;18.30;96.10;;;;;;5033611;28;20067;-71
2023/05/22 00:53:27;;;;;;;22.98;13.73;;;18.20;96.30;;;;;;5033361;28;20022;-72
2023/05/22 00:55:53;;;;;;;21.20;12.88;;;18.20;96.30;;;;;;5031937;28;20045;-72
2023/05/22 00:58:20;;;;;;;25.90;14.50;;;18.20;96.40;;;;;;5032358;28;20083;-72
2023/05/22 01:00:46;;;;;;;23.17;14.73;;;18.10;96.40;;;;;;5052129;28;20041;-72
2023/05/22 01:03:13;;;;;;;26.15;14.57;;;18.10;96.60;;;;;;5051415;28;20047;-74
2023/05/22 01:05:40;;;;;;;25.95;16.33;;;18.00;96.80;;;;;;5053125;28;20486;-71
2023/05/22 01:08:06;;;;;;;26.85;16.27;;;18.10;96.70;;;;;;5052960;28;20032;-72
2023/05/22 01:10:33;;;;;;;28.27;15.85;;;18.00;96.90;;;;;;5035783;28;20060;-71
2023/05/22 01:13:23;;;;;;;29.85;15.52;;;18.10;96.90;;;;;;5032860;28;20025;-72
2023/05/22 01:15:58;;;;;;;30.33;16.30;;;18.10;97.00;;;;;;5033110;28;20391;-72
2023/05/22 01:18:30;;;;;;;27.92;15.63;;;18.00;97.10;;;;;;5032772;28;20030;-73
2023/05/22 01:21:02;;;;;;;26.42;17.15;;;18.00;97.20;;;;;;5034121;28;20028;-72
2023/05/22 01:23:52;;;;;;;27.52;16.77;;;18.00;97.20;;;;;;5032461;28;20556;-72
2023/05/22 01:26:45;;;;;;;30.70;16.15;;;18.00;97.30;;;;;;5031600;28;20033;-71
2023/05/22 01:29:26;;;;;;;29.85;19.75;;;18.00;97.30;;;;;;5035611;28;20128;-71
2023/05/22 01:31:52;;;;;;;25.58;16.30;;;18.00;97.30;;;;;;5051016;28;20029;-73
2023/05/22 01:34:20;;;;;;;32.30;17.73;;;18.00;97.20;;;;;;5052805;28;20029;-72
2023/05/22 01:36:47;;;;;;;30.27;17.60;;;18.00;97.30;;;;;;5052890;28;20017;-73
2023/05/22 01:39:14;;;;;;;31.33;18.98;;;18.00;97.50;;;;;;5048794;28;20025;-74
2023/05/22 01:41:40;;;;;;;34.45;20.75;;;18.00;97.80;;;;;;5032072;28;20113;-74
2023/05/22 01:44:05;;;;;;;30.90;19.83;;;18.10;97.40;;;;;;5032531;28;20036;-74
2023/05/22 01:46:31;;;;;;;37.75;19.70;;;18.00;97.50;;;;;;5032701;28;20022;-75
2023/05/22 01:48:57;;;;;;;36.55;20.63;;;18.00;97.60;;;;;;5034643;28;20106;-72
2023/05/22 01:51:47;;;;;;;28.45;19.15;;;18.00;97.70;;;;;;5045481;28;20022;-73
2023/05/22 01:54:24;;;;;;;33.08;19.83;;;18.00;97.70;;;;;;5045155;28;20514;-75
2023/05/22 01:57:02;;;;;;;32.25;20.52;;;17.90;97.80;;;;;;5033993;28;20021;-73
2023/05/22 01:59:56;;;;;;;35.10;21.60;;;17.80;98.00;;;;;;5033963;28;20474;-72
2023/05/22 02:02:24;;;;;;;33.70;19.63;;;17.90;98.10;;;;;;5035638;28;20117;-76
2023/05/22 02:04:59;;;;;;;34.90;21.70;;;18.00;97.70;;;;;;5034786;28;20030;-72
2023/05/22 02:07:26;;;;;;;34.85;20.08;;;17.90;98.00;;;;;;5031944;28;20383;-74
2023/05/22 02:09:54;;;;;;;33.13;20.38;;;17.90;98.10;;;;;;5030587;28;20040;-73
2023/05/22 02:12:21;;;;;;;40.35;21.05;;;17.80;98.30;;;;;;5032557;28;20025;-72
2023/05/22 02:14:47;;;;;;;33.42;20.15;;;17.90;98.20;;;;;;5030534;28;20037;-74
2023/05/22 02:17:13;;;;;;;29.25;18.95;;;17.90;98.10;;;;;;5038991;28;20041;-78
2023/05/22 02:19:39;;;;;;;32.72;19.83;;;17.80;98.30;;;;;;5037869;28;20060;-76
2023/05/22 02:22:04;;;;;;;31.65;18.48;;;17.80;98.50;;;;;;5039304;28;20104;-73
2023/05/22 02:24:31;;;;;;;31.65;18.73;;;17.80;98.40;;;;;;5031915;28;20080;-72
2023/05/22 02:26:57;;;;;;;27.35;18.15;;;17.90;98.40;;;;;;5031555;28;20040;-73
2023/05/22 02:29:23;;;;;;;28.55;18.23;;;17.80;98.40;;;;;;5046598;28;20041;-74
2023/05/22 02:31:48;;;;;;;27.13;19.63;;;17.80;98.60;;;;;;5050864;28;20024;-73
2023/05/22 02:34:14;;;;;;;29.90;19.08;;;17.80;98.60;;;;;;5052273;28;20033;-74
2023/05/22 02:36:40;;;;;;;34.85;19.08;;;17.80;98.60;;;;;;5052109;28;20021;-76
2023/05/22 02:39:05;;;;;;;29.27;18.25;;;17.80;98.60;;;;;;5040638;28;20061;-72
2023/05/22 02:41:31;;;;;;;28.15;18.00;;;17.70;98.60;;;;;;5054841;28;20021;-74
2023/05/22 02:43:56;;;;;;;27.80;18.67;;;17.80;98.60;;;;;;5035207;28;20064;-72
2023/05/22 02:46:22;;;;;;;29.92;19.45;;;17.80;98.50;;;;;;5034495;28;20021;-73
2023/05/22 02:48:48;;;;;;;29.00;18.02;;;17.80;98.50;;;;;;5035560;28;20052;-72
2023/05/22 02:51:13;;;;;;;28.15;19.90;;;17.80;98.60;;;;;;5035000;28;20105;-76
2023/05/22 02:53:40;;;;;;;29.90;19.65;;;17.70;98.70;;;;;;5035526;28;20095;-75
2023/05/22 02:56:10;;;;;;;25.80;18.60;;;17.80;98.70;;;;;;5035639;28;20023;-72
2023/05/22 02:58:36;;;;;;;25.70;17.90;;;17.80;98.70;;;;;;5035254;28;20025;-75
2023/05/22 03:01:02;;;;;;;23.80;18.08;;;17.70;98.70;;;;;;5034858;28;20048;-76
2023/05/22 03:03:30;;;;;;;24.55;18.75;;;17.70;98.80;;;;;;5035376;28;20475;-75
2023/05/22 03:05:57;;;;;;;25.38;17.45;;;17.60;98.80;;;;;;5033847;28;20014;-73
2023/05/22 03:08:25;;;;;;;23.08;15.77;;;17.60;98.80;;;;;;5035314;28;20167;-74
2023/05/22 03:10:50;;;;;;;29.58;16.80;;;17.70;98.70;;;;;;5035315;28;20052;-72
2023/05/22 03:13:16;;;;;;;25.95;17.08;;;17.80;98.50;;;;;;5035034;28;20118;-74
2023/05/22 03:15:41;;;;;;;26.23;16.75;;;17.80;98.60;;;;;;5035072;28;20459;-72
2023/05/22 03:18:07;;;;;;;31.63;19.52;;;17.80;98.50;;;;;;5035159;28;20030;-72
2023/05/22 03:20:32;;;;;;;29.95;20.60;;;17.80;98.50;;;;;;5034664;28;20052;-73
2023/05/22 03:22:58;;;;;;;33.85;21.27;;;17.70;98.60;;;;;;5034846;28;20025;-75
2023/05/22 03:25:24;;;;;;;31.05;20.58;;;17.70;98.60;;;;;;5033947;28;20430;-73
2023/05/22 03:27:49;;;;;;;32.72;22.02;;;17.70;98.70;;;;;;5034711;28;20044;-72
2023/05/22 03:30:16;;;;;;;33.53;22.67;;;17.70;98.80;;;;;;5034866;28;20491;-71
2023/05/22 03:32:42;;;;;;;40.03;23.25;;;17.70;98.90;;;;;;5038341;28;20350;-73
2023/05/22 03:35:08;;;;;;;37.15;26.25;;;17.60;98.90;;;;;;5034704;28;20033;-72
2023/05/22 03:37:33;;;;;;;44.55;27.00;;;17.60;98.90;;;;;;5045307;28;20040;-73
2023/05/22 03:39:59;;;;;;;40.80;27.13;;;17.60;99.00;;;;;;5034630;28;20030;-75
2023/05/22 03:42:25;;;;;;;49.55;29.55;;;17.50;99.00;;;;;;5034668;28;20497;-76
2023/05/22 03:44:50;;;;;;;42.13;28.85;;;17.50;99.40;;;;;;5034285;28;20470;-72
2023/05/22 03:47:16;;;;;;;42.80;29.13;;;17.60;99.00;;;;;;5041535;28;20021;-76
2023/05/22 03:49:41;;;;;;;47.00;31.10;;;17.50;99.10;;;;;;5053973;28;20057;-72
2023/05/22 03:52:08;;;;;;;51.28;30.88;;;17.60;99.10;;;;;;5053996;28;20390;-73
2023/05/22 03:54:34;;;;;;;44.42;28.65;;;17.60;99.10;;;;;;5054111;28;20033;-73
2023/05/22 03:57:00;;;;;;;45.75;29.60;;;17.60;99.40;;;;;;5041475;28;20025;-72
2023/05/22 03:59:25;;;;;;;42.08;25.17;;;17.60;99.10;;;;;;5033914;28;20471;-72
2023/05/22 04:01:51;;;;;;;46.05;30.80;;;17.60;98.90;;;;;;5033449;28;20022;-73
2023/05/22 04:04:16;;;;;;;38.75;27.38;;;17.60;99.20;;;;;;5034082;28;20180;-74
2023/05/22 04:06:42;;;;;;;43.50;30.50;;;17.60;99.10;;;;;;5033421;28;20481;-72
2023/05/22 04:09:12;;;;;;;43.72;30.50;;;17.60;99.20;;;;;;5034209;28;20037;-72
2023/05/22 04:11:38;;;;;;;46.20;31.55;;;17.60;99.30;;;;;;5033911;28;20026;-75
2023/05/22 04:14:05;;;;;;;49.40;31.13;;;17.50;99.50;;;;;;5034236;28;20394;-71
2023/05/22 04:16:31;;;;;;;43.90;30.67;;;17.50;99.60;;;;;;5033948;28;20365;-72
2023/05/22 04:18:57;;;;;;;47.72;30.27;;;17.50;99.50;;;;;;5033816;28;20029;-74
2023/05/22 04:21:23;;;;;;;43.65;29.90;;;17.60;99.10;;;;;;5033786;28;20032;-74
2023/05/22 04:23:49;;;;;;;41.45;28.60;;;17.60;98.60;;;;;;5034013;28;20025;-74
2023/05/22 04:26:19;;;;;;;38.55;27.30;;;17.70;98.50;;;;;;5033766;28;20497;-73
2023/05/22 04:28:45;;;;;;;40.40;29.08;;;17.80;98.50;;;;;;5033531;28;20037;-73
2023/05/22 04:31:14;;;;;;;48.92;30.75;;;17.70;98.40;;;;;;5033718;28;20037;-74
2023/05/22 04:33:39;;;;;;;42.38;30.30;;;17.80;98.70;;;;;;5033470;28;20033;-73
2023/05/22 04:36:07;;;;;;;43.25;30.48;;;17.80;98.70;;;;;;5034015;28;20510;-73
2023/05/22 04:38:35;;;;;;;45.92;32.28;;;17.80;98.70;;;;;;5033710;28;20025;-73
2023/05/22 04:41:07;;;;;;;42.08;30.45;;;17.80;98.60;;;;;;5032335;28;20429;-74
2023/05/22 04:43:33;;;;;;;45.72;32.40;;;17.80;98.60;;;;;;5033596;28;20100;-73
2023/05/22 04:45:59;;;;;;;45.65;31.40;;;18.00;98.20;;;;;;5033660;28;20112;-75
2023/05/22 04:48:26;;;;;;;50.03;35.33;;;18.00;98.10;;;;;;5032417;28;20072;-75
2023/05/22 04:50:53;;;;;;;48.88;33.80;;;18.10;98.10;;;;;;5033437;28;20029;-74
2023/05/22 04:53:18;;;;;;;46.45;33.25;;;18.00;98.00;;;;;;5033335;28;20053;-74
2023/05/22 04:55:44;;;;;;;48.50;34.13;;;18.00;98.30;;;;;;5033384;28;20110;-74
2023/05/22 04:58:10;;;;;;;43.25;27.17;;;17.90;98.50;;;;;;5038169;28;20085;-70
2023/05/22 05:00:36;;;;;;;43.45;28.63;;;17.90;98.70;;;;;;5048526;28;20144;-71
2023/05/22 05:03:02;;;;;;;43.88;29.38;;;17.80;98.90;;;;;;5035509;28;20499;-72
2023/05/22 05:05:28;;;;;;;46.22;30.50;;;17.70;99.10;;;;;;5032888;28;20032;-70
2023/05/22 05:07:53;;;;;;;36.63;26.42;;;17.70;99.20;;;;;;5038600;28;20029;-70
2023/05/22 05:10:19;;;;;;;45.33;32.17;;;17.80;99.20;;;;;;5050883;28;20446;-71
2023/05/22 05:12:45;;;;;;;45.65;31.83;;;17.80;99.30;;;;;;5052666;28;20029;-69
2023/05/22 05:15:10;;;;;;;44.72;32.35;;;17.70;99.30;;;;;;5052902;28;20112;-72
2023/05/22 05:17:37;;;;;;;46.92;33.33;;;17.70;99.40;;;;;;5046221;28;20037;-69
2023/05/22 05:20:05;;;;;;;45.85;32.08;;;17.70;99.50;;;;;;5034144;28;20467;-70
2023/05/22 05:22:31;;;;;;;44.08;31.10;;;17.70;99.50;;;;;;5034618;28;20014;-71
2023/05/22 05:24:57;;;;;;;44.83;32.78;;;17.60;99.60;;;;;;5036579;28;20025;-75
2023/05/22 05:27:22;;;;;;;45.90;32.30;;;17.60;99.80;;;;;;5047263;28;20037;-73
2023/05/22 05:29:48;;;;;;;47.20;33.80;;;17.50;99.90;;;;;;5051424;28;20037;-73
2023/05/22 05:32:14;;;;;;;43.85;31.33;;;17.60;99.90;;;;;;5032619;28;20366;-69
2023/05/22 05:34:40;;;;;;;55.20;33.70;;;17.50;99.90;;;;;;5032459;28;20026;-70
2023/05/22 05:37:05;;;;;;;43.15;30.23;;;17.50;99.90;;;;;;5050221;28;20029;-71
2023/05/22 05:39:31;;;;;;;38.08;29.85;;;17.50;99.90;;;;;;5052718;28;20539;-69
2023/05/22 05:41:57;;;;;;;46.80;30.90;;;17.50;99.90;;;;;;5042227;28;20033;-69
2023/05/22 05:44:22;;;;;;;47.92;30.83;;;17.50;99.90;;;;;;5033513;28;20048;-68
2023/05/22 05:46:48;;;;;;;47.92;31.98;;;17.50;99.90;;;;;;5032759;28;20061;-71
2023/05/22 05:49:13;;;;;;;45.33;30.15;;;17.50;99.90;;;;;;5032388;28;20038;-72
2023/05/22 05:51:39;;;;;;;41.05;30.85;;;17.50;99.90;;;;;;5032673;28;20017;-73
2023/05/22 05:54:05;;;;;;;47.50;30.77;;;17.50;99.90;;;;;;5032492;28;20111;-71
2023/05/22 05:56:30;;;;;;;46.78;31.52;;;17.50;99.90;;;;;;5032442;28;20371;-73
2023/05/22 05:58:56;;;;;;;40.47;29.77;;;17.50;99.90;;;;;;5032033;28;20037;-70
2023/05/22 06:01:24;;;;;;;41.80;29.85;;;17.50;99.90;;;;;;5033025;28;20027;-73
2023/05/22 06:03:50;;;;;;;46.90;32.10;;;17.50;99.90;;;;;;5040219;28;20025;-70
2023/05/22 06:06:16;;;;;;;39.90;29.77;;;17.50;99.90;;;;;;5051631;28;20021;-69
2023/05/22 06:08:42;;;;;;;43.83;30.98;;;17.50;99.90;;;;;;5052068;28;20029;-72
2023/05/22 06:11:08;;;;;;;38.13;28.35;;;17.50;99.90;;;;;;5049140;28;20037;-72
2023/05/22 06:13:34;;;;;;;39.83;29.48;;;17.50;99.90;;;;;;5037032;28;20024;-70
2023/05/22 06:16:00;;;;;;;45.25;29.25;;;17.40;99.90;;;;;;5042453;28;20483;-72
2023/05/22 06:18:25;;;;;;;37.70;28.08;;;17.50;99.90;;;;;;5039363;28;20025;-70
2023/05/22 06:20:52;;;;;;;37.55;28.38;;;17.60;99.90;;;;;;5035765;28;20033;-68
2023/05/22 06:23:18;;;;;;;43.10;28.20;;;17.60;99.90;;;;;;5035647;28;20538;-71
2023/05/22 06:25:44;;;;;;;37.92;27.30;;;17.50;99.90;;;;;;5055459;28;20121;-70
2023/05/22 06:28:10;;;;;;;36.75;27.20;;;17.60;99.90;;;;;;5053798;28;20033;-73
2023/05/22 06:30:35;;;;;;;38.67;25.65;;;17.50;99.90;;;;;;5055907;28;20028;-70
2023/05/22 06:33:02;;;;;;;37.60;26.15;;;17.60;99.90;;;;;;5054490;28;20025;-70
2023/05/22 06:35:29;;;;;;;37.22;26.77;;;17.50;99.90;;;;;;5055778;28;20025;-69
2023/05/22 06:37:54;;;;;;;38.88;25.83;;;17.60;99.90;;;;;;5041275;28;20083;-69
2023/05/22 06:40:20;;;;;;;37.47;25.98;;;17.50;99.90;;;;;;5043923;28;20053;-70
2023/05/22 06:42:46;;;;;;;34.42;25.50;;;17.50;99.90;;;;;;5043549;28;20476;-68
2023/05/22 06:45:12;;;;;;;29.38;22.77;;;17.60;99.90;;;;;;5054654;28;20027;-69
2023/05/22 06:47:37;;;;;;;36.38;24.45;;;17.60;99.90;;;;;;5053795;28;20501;-68
2023/05/22 06:50:04;;;;;;;32.42;22.95;;;17.60;99.90;;;;;;5037684;28;20107;-69
2023/05/22 06:52:30;;;;;;;28.23;20.83;;;17.70;99.90;;;;;;5050492;28;20478;-70
2023/05/22 06:55:03;;;;;;;31.95;20.73;;;17.80;99.80;;;;;;5043523;28;20029;-73
2023/05/22 06:57:29;;;;;;;;;;;17.80;99.70;;;;;;5034840;28;20032;-72
2023/05/22 06:59:55;;;;;;;40.30;27.95;;;17.80;99.60;;;;;;5039777;28;19913;-68
2023/05/22 07:02:20;;;;;;;36.42;27.77;;;17.80;99.80;;;;;;5035729;28;20433;-72
2023/05/22 07:04:46;;;;;;;36.95;26.42;;;17.70;99.90;;;;;;5034632;28;20120;-71
2023/05/22 07:07:11;;;;;;;35.17;23.83;;;17.70;99.90;;;;;;5043916;28;20024;-72
2023/05/22 07:09:37;;;;;;;30.98;22.00;;;17.70;99.90;;;;;;5039454;28;20037;-71
2023/05/22 07:12:03;;;;;;;32.28;25.33;;;17.80;99.80;;;;;;5055175;28;20025;-73
2023/05/22 07:14:28;;;;;;;36.90;26.05;;;17.80;99.80;;;;;;5054922;28;20041;-71
2023/05/22 07:16:55;;;;;;;36.45;26.48;;;17.80;99.80;;;;;;5055015;28;20105;-72
2023/05/22 07:19:20;;;;;;;31.20;25.08;;;17.80;99.70;;;;;;5041783;28;20412;-71
2023/05/22 07:21:46;;;;;;;34.80;25.65;;;17.80;99.70;;;;;;5034637;28;20506;-71
2023/05/22 07:24:11;;;;;;;34.70;25.55;;;17.80;99.80;;;;;;5034539;28;20101;-69
2023/05/22 07:26:37;;;;;;;31.75;25.95;;;17.80;99.80;;;;;;5039346;28;20111;-70
2023/05/22 07:29:03;;;;;;;40.28;26.80;;;17.80;99.80;;;;;;5040730;28;20394;-70
2023/05/22 07:31:30;;;;;;;32.05;23.90;;;17.70;99.90;;;;;;5052688;28;20017;-70
2023/05/22 07:33:56;;;;;;;32.05;25.77;;;17.80;99.90;;;;;;5048386;28;20028;-74
2023/05/22 07:36:22;;;;;;;31.25;23.95;;;17.80;99.90;;;;;;5037910;28;20112;-69
2023/05/22 07:38:47;;;;;;;36.67;24.27;;;17.80;99.90;;;;;;5038444;28;20532;-70
2023/05/22 07:41:13;;;;;;;33.55;24.35;;;17.80;99.90;;;;;;5054273;28;20100;-72
2023/05/22 07:43:38;;;;;;;30.63;23.42;;;17.80;99.90;;;;;;5054533;28;20104;-69
2023/05/22 07:46:08;;;;;;;28.23;20.75;;;17.80;99.90;;;;;;5053751;28;20469;-68
2023/05/22 07:48:33;;;;;;;32.25;21.25;;;17.80;99.90;;;;;;5054339;28;20040;-73
2023/05/22 07:50:59;;;;;;;27.73;21.55;;;17.80;99.90;;;;;;5054292;28;20021;-71
2023/05/22 07:53:25;;;;;;;27.40;18.45;;;17.90;99.80;;;;;;5054206;28;20036;-71
2023/05/22 07:55:50;;;;;;;27.73;22.35;;;17.90;99.70;;;;;;5053892;28;20099;-70
2023/05/22 07:58:16;;;;;;;28.50;20.42;;;17.90;99.80;;;;;;5054218;28;20071;-71
2023/05/22 08:00:41;;;;;;;35.85;22.38;;;17.90;99.70;;;;;;5054245;28;20525;-74
2023/05/22 08:03:07;;;;;;;25.63;20.73;;;18.00;99.70;;;;;;5054410;28;20050;-69
2023/05/22 08:05:33;;;;;;;24.20;18.67;;;18.00;99.70;;;;;;5053891;28;20061;-70
2023/05/22 08:07:58;;;;;;;23.00;17.95;;;18.00;99.60;;;;;;5053980;28;20071;-73
2023/05/22 08:10:24;;;;;;;24.50;19.58;;;18.00;99.60;;;;;;5053743;28;20029;-69
2023/05/22 08:12:50;;;;;;;24.73;20.25;;;18.00;99.60;;;;;;5053295;28;20107;-66
2023/05/22 08:15:15;;;;;;;30.35;21.35;;;18.00;99.70;;;;;;5051831;28;20017;-69
2023/05/22 08:17:41;;;;;;;27.08;18.42;;;18.00;99.60;;;;;;5060749;28;20016;-70
2023/05/22 08:20:07;;;;;;;22.67;15.90;;;18.00;99.60;;;;;;5057493;28;20021;-69
2023/05/22 08:22:34;;;;;;;28.48;21.67;;;18.00;99.50;;;;;;5068668;28;20021;-69
2023/05/22 08:24:59;;;;;;;26.38;17.65;;;18.10;99.90;;;;;;5056919;28;20074;-69
2023/05/22 08:27:25;;;;;;;27.95;21.15;;;18.10;99.80;;;;;;5062627;28;20032;-68
2023/05/22 08:29:51;;;;;;;19.70;15.52;;;18.10;99.70;;;;;;5063709;28;20116;-66
2023/05/22 08:32:17;;;;;;;31.15;20.73;;;18.10;99.30;;;;;;5056943;28;20650;-70
2023/05/22 08:34:44;;;;;;;24.65;16.55;;;18.10;99.50;;;;;;5067749;28;20551;-71
2023/05/22 08:37:11;;;;;;;25.60;19.02;;;18.10;99.20;;;;;;5057510;28;20062;-72
2023/05/22 08:39:36;;;;;;;26.73;19.20;;;18.10;99.40;;;;;;5061488;28;20044;-67
2023/05/22 08:42:03;;;;;;;27.67;20.27;;;18.20;99.40;;;;;;5065232;28;20024;-68
2023/05/22 08:44:29;;;;;;;24.63;18.02;;;18.20;99.30;;;;;;5055223;28;20087;-70
2023/05/22 08:46:58;;;;;;;34.78;23.10;;;18.20;99.20;;;;;;5067778;28;20025;-72
2023/05/22 08:49:24;;;;;;;33.80;23.33;;;18.20;99.60;;;;;;5059600;28;20113;-69
2023/05/22 08:51:55;;;;;;;37.22;23.30;;;18.20;99.60;;;;;;5059248;28;20036;-68
2023/05/22 08:54:24;;;;;;;31.55;22.45;;;18.30;99.60;;;;;;5051455;28;20429;-69
2023/05/22 08:56:51;;;;;;;34.60;22.30;;;18.30;99.60;;;;;;5051520;28;20023;-70
2023/05/22 08:59:18;;;;;;;28.85;18.67;;;18.30;99.60;;;;;;5061536;28;20025;-71
2023/05/22 09:01:45;;;;;;;29.30;18.35;;;18.30;99.20;;;;;;5037687;28;20037;-72
2023/05/22 09:04:12;;;;;;;29.52;20.15;;;18.30;99.40;;;;;;5048078;28;20440;-67
2023/05/22 09:06:37;;;;;;;36.45;22.85;;;18.30;99.40;;;;;;5068119;28;20028;-70
2023/05/22 09:09:03;;;;;;;37.15;22.00;;;18.30;99.60;;;;;;5050893;28;20028;-69
2023/05/22 09:11:29;;;;;;;38.13;22.95;;;18.40;99.80;;;;;;5049869;28;20024;-69
2023/05/22 09:14:10;;;;;;;31.70;21.67;;;18.30;99.70;;;;;;5049674;28;20048;-67
2023/05/22 09:16:47;;;;;;;27.67;19.35;;;18.40;99.80;;;;;;5037772;28;20079;-69
2023/05/22 09:19:16;;;;;;;35.78;22.08;;;18.40;99.70;;;;;;5059750;28;20028;-68
2023/05/22 09:21:43;;;;;;;29.75;19.80;;;18.40;99.60;;;;;;5061574;28;20470;-68
2023/05/22 09:24:09;;;;;;;30.23;16.80;;;18.40;99.50;;;;;;5057116;28;20524;-70
2023/05/22 09:26:37;;;;;;;64.13;25.85;;;18.40;99.20;;;;;;5067207;28;20111;-69
2023/05/22 09:29:04;;;;;;;34.22;19.17;;;18.40;99.70;;;;;;5041425;28;20036;-68
2023/05/22 09:31:30;;;;;;;29.98;21.58;;;18.40;99.40;;;;;;5059611;28;20104;-69
2023/05/22 09:33:57;;;;;;;24.85;17.35;;;18.40;99.30;;;;;;5054868;28;20448;-70
2023/05/22 09:36:31;;;;;;;19.65;14.38;;;18.50;99.10;;;;;;5066455;28;20104;-70
2023/05/22 09:39:00;;;;;;;27.80;16.42;;;18.50;99.00;;;;;;5032068;28;20505;-68
2023/05/22 09:41:29;;;;;;;24.65;15.68;;;18.50;98.90;;;;;;5032353;28;20475;-69
2023/05/22 09:43:54;;;;;;;33.08;20.50;;;18.50;98.90;;;;;;5032649;28;20399;-67
2023/05/22 09:46:20;;;;;;;26.40;18.25;;;18.60;99.20;;;;;;5041043;28;20032;-69
2023/05/22 09:48:55;;;;;;;34.45;21.30;;;18.60;99.10;;;;;;5049506;28;20063;-70
2023/05/22 09:51:25;;;;;;;36.13;22.63;;;18.60;99.30;;;;;;5061958;28;20063;-67
2023/05/22 09:53:55;;;;;;;35.72;22.20;;;18.60;99.20;;;;;;5048560;28;20030;-68
2023/05/22 09:56:22;;;;;;;37.10;24.10;;;18.70;99.30;;;;;;5057247;28;20029;-70
2023/05/22 09:58:51;;;;;;;28.65;18.42;;;18.60;99.50;;;;;;5068704;28;20055;-70
2023/05/22 10:01:18;;;;;;;24.00;16.05;;;18.70;99.40;;;;;;5045731;28;20498;-68
2023/05/22 10:03:46;;;;;;;25.02;17.98;;;18.70;99.10;;;;;;5069302;28;20075;-69
2023/05/22 10:06:13;;;;;;;25.70;17.45;;;18.70;99.00;;;;;;5051703;28;20021;-70
2023/05/22 10:08:44;;;;;;;24.30;16.00;;;18.70;99.00;;;;;;5035852;28;20045;-71
2023/05/22 10:11:11;;;;;;;34.05;20.83;;;18.70;99.10;;;;;;5035843;28;20049;-69
2023/05/22 10:13:36;;;;;;;32.17;20.05;;;18.80;99.60;;;;;;5034718;28;20109;-69
2023/05/22 10:16:03;;;;;;;32.47;20.52;;;18.80;99.50;;;;;;5036240;28;20108;-70
2023/05/22 10:18:29;;;;;;;29.70;20.40;;;18.80;99.40;;;;;;5036229;28;20046;-69
2023/05/22 10:20:56;;;;;;;32.88;20.67;;;18.80;99.30;;;;;;5035961;28;20022;-69
2023/05/22 10:23:24;;;;;;;30.08;20.63;;;18.80;99.70;;;;;;5036069;28;20028;-70
2023/05/22 10:25:50;;;;;;;29.98;18.60;;;18.90;99.30;;;;;;5036395;28;20022;-70
2023/05/22 10:28:24;;;;;;;29.58;19.85;;;18.90;99.50;;;;;;5044150;28;20032;-71
2023/05/22 10:30:59;;;;;;;36.42;21.42;;;18.90;99.40;;;;;;5054430;28;20039;-69
2023/05/22 10:33:29;;;;;;;34.33;20.58;;;19.00;99.40;;;;;;5055572;28;20148;-67
2023/05/22 10:36:02;;;;;;;35.00;21.02;;;19.00;99.50;;;;;;5053918;28;20025;-70
2023/05/22 10:38:56;;;;;;;36.22;21.92;;;19.00;99.90;;;;;;5034737;28;20043;-71
2023/05/22 10:41:22;;;;;;;34.00;20.50;;;19.00;99.90;;;;;;5035692;28;20030;-68
2023/05/22 10:43:49;;;;;;;29.73;20.33;;;19.00;99.70;;;;;;5035719;28;20597;-69
2023/05/22 10:46:16;;;;;;;36.60;22.77;;;19.00;99.90;;;;;;5035777;28;20075;-70
2023/05/22 10:48:51;;;;;;;35.08;23.20;;;19.00;99.90;;;;;;5038388;28;20038;-67
2023/05/22 10:51:18;;;;;;;34.10;21.67;;;19.10;99.90;;;;;;5052476;28;20029;-71
2023/05/22 10:53:44;;;;;;;36.05;21.08;;;19.10;99.90;;;;;;5055444;28;20474;-69
2023/05/22 10:56:12;;;;;;;30.92;19.88;;;19.10;99.90;;;;;;5055231;28;20116;-67
2023/05/22 10:58:38;;;;;;;34.70;19.83;;;19.20;99.80;;;;;;5041432;28;20049;-70
2023/05/22 11:01:14;;;;;;;30.85;19.20;;;19.20;99.90;;;;;;5035368;28;20033;-66
2023/05/22 11:04:10;;;;;;;27.08;17.58;;;19.20;99.90;;;;;;5035141;28;20025;-70
2023/05/22 11:06:44;;;;;;;30.60;17.38;;;19.20;99.90;;;;;;5030483;28;20513;-69
2023/05/22 11:09:32;;;;;;;30.15;17.92;;;19.20;99.90;;;;;;5035095;28;20042;-69
2023/05/22 11:12:23;;;;;;;25.13;16.02;;;19.20;99.90;;;;;;5035592;28;20018;-69
2023/05/22 11:14:51;;;;;;;26.33;16.58;;;19.30;99.90;;;;;;5035171;28;20029;-71
2023/05/22 11:17:21;;;;;;;27.80;15.82;;;19.20;99.90;;;;;;5034882;28;20025;-70
2023/05/22 11:19:58;;;;;;;29.08;16.65;;;19.30;99.90;;;;;;5034768;28;20025;-67
2023/05/22 11:22:32;;;;;;;26.83;18.05;;;19.30;99.90;;;;;;5035294;28;20087;-68
2023/05/22 11:24:58;;;;;;;28.27;16.15;;;19.30;99.90;;;;;;5034935;28;20463;-67
2023/05/22 11:27:24;;;;;;;25.60;16.92;;;19.30;99.90;;;;;;5034951;28;20029;-68
2023/05/22 11:29:50;;;;;;;28.42;17.15;;;19.40;99.90;;;;;;5034791;28;20045;-69
2023/05/22 11:32:19;;;;;;;25.55;16.17;;;19.40;99.90;;;;;;5034712;28;20021;-70
2023/05/22 11:34:51;;;;;;;28.00;17.00;;;19.40;99.80;;;;;;5034848;28;20035;-69
2023/05/22 11:37:18;;;;;;;24.67;14.63;;;19.40;99.80;;;;;;5033637;28;20116;-68
2023/05/22 11:39:56;;;;;;;24.65;17.00;;;19.50;99.90;;;;;;5035410;28;20025;-71
2023/05/22 11:42:22;;;;;;;29.92;16.55;;;19.50;99.60;;;;;;5033163;28;20018;-69
2023/05/22 11:44:48;;;;;;;26.00;14.32;;;19.50;99.40;;;;;;5035016;28;20114;-70
2023/05/22 11:47:14;;;;;;;22.58;13.20;;;19.60;99.50;;;;;;5034280;28;20061;-70
2023/05/22 11:49:41;;;;;;;21.73;12.95;;;19.60;99.50;;;;;;5034646;28;20044;-71
2023/05/22 11:52:08;;;;;;;22.70;13.48;;;19.60;99.50;;;;;;5034371;28;20022;-67
2023/05/22 11:54:33;;;;;;;22.48;12.38;;;19.60;99.50;;;;;;5033268;28;20033;-70
2023/05/22 11:56:59;;;;;;;22.90;13.13;;;19.60;99.50;;;;;;5034229;28;20025;-67
2023/05/22 11:59:25;;;;;;;22.67;12.85;;;19.70;99.50;;;;;;5034579;28;20099;-69
2023/05/22 12:01:51;;;;;;;21.95;14.20;;;19.70;99.70;;;;;;5034025;28;20029;-67
2023/05/22 12:04:17;;;;;;;21.75;13.60;;;19.70;99.50;;;;;;5034356;28;20033;-69
2023/05/22 12:06:43;;;;;;;24.88;13.70;;;19.70;99.40;;;;;;5034017;28;20022;-70
2023/05/22 12:09:09;;;;;;;23.50;13.10;;;19.80;99.40;;;;;;5032708;28;20136;-68
2023/05/22 12:11:35;;;;;;;19.02;11.13;;;19.80;99.50;;;;;;5031921;28;20101;-70
2023/05/22 12:14:04;;;;;;;18.75;12.00;;;19.80;99.20;;;;;;5034091;28;20029;-68
2023/05/22 12:16:36;;;;;;;20.05;13.32;;;19.80;99.10;;;;;;5033877;28;20029;-67
2023/05/22 12:19:09;;;;;;;23.60;13.70;;;19.90;99.10;;;;;;5033865;28;20494;-71
2023/05/22 12:21:38;;;;;;;21.10;13.00;;;19.90;99.20;;;;;;5033697;28;20467;-70
2023/05/22 12:24:04;;;;;;;20.10;12.02;;;19.90;99.10;;;;;;5033903;28;20478;-68
2023/05/22 12:26:31;;;;;;;19.25;10.80;;;20.00;99.00;;;;;;5033833;28;20041;-67
2023/05/22 12:28:57;;;;;;;23.85;13.77;;;20.00;99.00;;;;;;5032558;28;20119;-69
2023/05/22 12:31:23;;;;;;;23.10;15.48;;;20.00;99.10;;;;;;5033291;28;20017;-68